createdAt,value
2022-09-23T00:00:49.419Z,1.57
2022-09-23T00:03:51.306Z,2.10
2022-09-23T00:06:53.337Z,1.67
2022-09-23T00:09:56.644Z,1.73
2022-09-23T00:12:59.100Z,1.83
2022-09-23T00:16:05.516Z,1.87
2022-09-23T00:19:07.652Z,1.90
2022-09-23T00:22:09.941Z,1.90
2022-09-23T00:25:12.498Z,2.00
2022-09-23T00:28:14.402Z,2.10
2022-09-23T00:31:27.526Z,2.07
2022-09-23T00:34:30.127Z,1.70
2022-09-23T00:37:32.219Z,1.97
2022-09-23T00:40:35.004Z,1.70
2022-09-23T00:43:46.540Z,1.93
2022-09-23T00:46:48.439Z,1.83
2022-09-23T00:50:03.173Z,2.20
2022-09-23T00:53:11.283Z,2.20
2022-09-23T00:56:14.352Z,1.70
2022-09-23T00:59:16.388Z,1.87
2022-09-23T01:02:21.391Z,1.90
2022-09-23T01:05:23.673Z,1.60
2022-09-23T01:08:27.195Z,1.80
2022-09-23T01:11:50.671Z,1.67
2022-09-23T01:15:35.090Z,1.90
2022-09-23T01:19:04.184Z,2.00
2022-09-23T01:22:27.037Z,1.80
2022-09-23T01:25:41.231Z,1.90
2022-09-23T01:29:18.623Z,1.70
2022-09-23T01:32:56.781Z,1.73
2022-09-23T01:36:25.103Z,1.47
2022-09-23T01:39:39.001Z,1.63
2022-09-23T01:42:46.425Z,1.60
2022-09-23T01:45:49.023Z,1.90
2022-09-23T01:48:59.834Z,1.77
2022-09-23T01:52:10.606Z,1.80
2022-09-23T01:55:31.591Z,1.97
2022-09-23T01:58:43.550Z,1.63
2022-09-23T02:02:01.228Z,1.67
2022-09-23T02:05:05.791Z,1.90
2022-09-23T02:08:16.523Z,1.50
2022-09-23T02:11:18.848Z,1.70
2022-09-23T02:14:25.842Z,1.23
2022-09-23T02:17:59.235Z,1.87
2022-09-23T02:21:06.604Z,1.80
2022-09-23T02:24:15.740Z,1.70
2022-09-23T02:27:29.555Z,1.40
2022-09-23T02:30:40.390Z,1.90
2022-09-23T02:33:46.827Z,1.70
2022-09-23T02:37:19.930Z,1.40
2022-09-23T02:40:46.653Z,1.53
2022-09-23T02:43:55.167Z,1.57
2022-09-23T02:46:58.052Z,1.40
2022-09-23T02:50:00.057Z,1.63
2022-09-23T02:53:02.779Z,1.50
2022-09-23T02:56:20.506Z,1.70
2022-09-23T02:59:24.078Z,1.80
2022-09-23T03:03:05.755Z,1.70
2022-09-23T03:06:21.921Z,1.60
2022-09-23T03:09:50.216Z,1.87
2022-09-23T03:13:19.602Z,1.60
2022-09-23T03:16:33.284Z,1.50
2022-09-23T03:19:58.776Z,1.50
2022-09-23T03:23:05.336Z,1.83
2022-09-23T03:26:21.437Z,1.57
2022-09-23T03:29:24.074Z,1.50
2022-09-23T03:32:28.167Z,1.80
2022-09-23T03:35:32.709Z,1.53
2022-09-23T03:38:38.412Z,1.67
2022-09-23T03:41:51.036Z,1.73
2022-09-23T03:44:57.367Z,1.70
2022-09-23T03:47:59.288Z,1.67
2022-09-23T03:51:14.188Z,2.10
2022-09-23T03:54:16.152Z,2.07
2022-09-23T03:57:18.283Z,1.90
2022-09-23T04:00:20.302Z,1.60
2022-09-23T04:03:22.983Z,1.63
2022-09-23T04:06:24.967Z,1.60
2022-09-23T04:09:27.110Z,1.67
2022-09-23T04:12:29.027Z,1.83
2022-09-23T04:15:32.400Z,1.67
2022-09-23T04:18:34.261Z,2.43
2022-09-23T04:21:36.490Z,1.97
2022-09-23T04:24:38.370Z,1.70
2022-09-23T04:27:40.822Z,1.67
2022-09-23T04:30:44.137Z,1.90
2022-09-23T04:33:46.584Z,1.90
2022-09-23T04:36:49.240Z,1.87
2022-09-23T04:39:51.222Z,1.63
2022-09-23T04:42:53.134Z,1.67
2022-09-23T04:46:03.399Z,1.60
2022-09-23T04:49:07.122Z,1.90
2022-09-23T04:52:09.144Z,1.90
2022-09-23T04:55:11.392Z,1.90
2022-09-23T04:58:14.183Z,1.90
2022-09-23T05:01:24.610Z,2.00
2022-09-23T05:04:26.758Z,1.93
2022-09-23T05:07:28.834Z,2.27
2022-09-23T05:10:31.422Z,1.93
2022-09-23T05:13:33.999Z,2.03
2022-09-23T05:16:36.590Z,2.13
2022-09-23T05:19:38.563Z,1.87
2022-09-23T05:22:40.524Z,1.70
2022-09-23T05:25:42.767Z,1.70
2022-09-23T05:28:44.827Z,1.50
2022-09-23T05:31:46.814Z,1.60
2022-09-23T05:34:49.089Z,1.93
2022-09-23T05:37:50.959Z,1.50
2022-09-23T05:41:00.537Z,1.90
2022-09-23T05:44:02.619Z,1.80
2022-09-23T05:47:04.798Z,2.00
2022-09-23T05:50:07.563Z,1.90
2022-09-23T05:53:09.443Z,1.87
2022-09-23T05:56:16.813Z,1.67
2022-09-23T05:59:19.577Z,1.80
2022-09-23T06:02:21.541Z,1.90
2022-09-23T06:05:23.903Z,1.67
2022-09-23T06:08:25.873Z,1.80
2022-09-23T06:11:30.728Z,1.87
2022-09-23T06:14:32.587Z,1.60
2022-09-23T06:17:34.502Z,1.90
2022-09-23T06:20:36.443Z,1.37
2022-09-23T06:23:41.121Z,1.90
2022-09-23T06:26:43.905Z,1.73
2022-09-23T06:29:45.868Z,1.63
2022-09-23T06:32:52.289Z,1.50
2022-09-23T06:35:59.856Z,1.83
2022-09-23T06:39:02.725Z,1.70
2022-09-23T06:42:08.072Z,2.03
2022-09-23T06:45:13.355Z,1.70
2022-09-23T06:48:15.259Z,1.63
2022-09-23T06:51:20.033Z,1.80
2022-09-23T06:54:22.526Z,1.53
2022-09-23T06:57:24.809Z,1.57
2022-09-23T07:00:26.868Z,1.60
2022-09-23T07:03:29.800Z,1.87
2022-09-23T07:06:31.696Z,2.07
2022-09-23T07:09:33.584Z,1.80
2022-09-23T07:12:35.814Z,1.80
2022-09-23T07:15:37.698Z,1.50
2022-09-23T07:18:41.423Z,1.90
2022-09-23T07:21:43.907Z,1.60
2022-09-23T07:24:47.069Z,1.53
2022-09-23T07:27:49.047Z,2.07
2022-09-23T07:30:59.521Z,1.80
2022-09-23T07:34:02.687Z,1.63
2022-09-23T07:37:05.492Z,1.50
2022-09-23T07:40:08.134Z,1.60
2022-09-23T07:43:10.103Z,1.37
2022-09-23T07:46:16.601Z,1.40
2022-09-23T07:49:18.971Z,1.23
2022-09-23T07:52:20.850Z,1.20
2022-09-23T07:55:23.226Z,1.30
2022-09-23T07:58:27.238Z,1.40
2022-09-23T08:01:31.239Z,1.20
2022-09-23T08:04:35.057Z,1.30
2022-09-23T08:07:36.999Z,1.40
2022-09-23T08:10:38.958Z,1.27
2022-09-23T08:13:42.053Z,1.30
2022-09-23T08:16:45.529Z,1.07
2022-09-23T08:19:47.646Z,1.10
2022-09-23T08:22:52.813Z,1.30
2022-09-23T08:26:00.530Z,1.20
2022-09-23T08:29:02.544Z,1.30
2022-09-23T08:32:04.608Z,1.20
2022-09-23T08:35:06.804Z,1.50
2022-09-23T08:38:09.784Z,1.23
2022-09-23T08:41:35.538Z,1.10
2022-09-23T08:44:38.182Z,1.00
2022-09-23T08:48:02.313Z,1.00
2022-09-23T08:51:12.182Z,1.10
2022-09-23T08:54:16.147Z,1.10
2022-09-23T08:57:31.262Z,1.27
2022-09-23T09:00:45.005Z,0.90
2022-09-23T09:04:01.176Z,1.13
2022-09-23T09:07:31.865Z,1.33
2022-09-23T09:10:34.198Z,1.03
2022-09-23T09:13:49.130Z,1.03
2022-09-23T09:17:03.153Z,1.10
2022-09-23T09:20:36.327Z,1.23
2022-09-23T09:23:48.748Z,1.00
2022-09-23T09:26:50.648Z,1.07
2022-09-23T09:29:55.309Z,0.80
2022-09-23T09:33:04.273Z,0.93
2022-09-23T09:36:12.062Z,1.53
2022-09-23T09:39:15.087Z,1.33
2022-09-23T09:42:27.487Z,1.10
2022-09-23T09:45:57.847Z,1.10
2022-09-23T09:49:29.121Z,0.80
2022-09-23T09:52:32.072Z,1.10
2022-09-23T09:55:36.628Z,1.00
2022-09-23T09:58:49.871Z,1.20
2022-09-23T10:02:31.915Z,0.97
2022-09-23T10:05:47.442Z,1.00
2022-09-23T10:09:12.211Z,1.00
2022-09-23T10:12:18.726Z,1.13
2022-09-23T10:15:33.419Z,1.00
2022-09-23T10:18:39.148Z,1.00
2022-09-23T10:21:41.870Z,1.50
2022-09-23T10:24:49.327Z,1.33
2022-09-23T10:27:51.267Z,1.00
2022-09-23T10:31:30.352Z,1.03
2022-09-23T10:34:34.313Z,1.40
2022-09-23T10:37:48.703Z,1.83
2022-09-23T10:44:53.647Z,1.00
2022-09-23T10:48:06.798Z,1.53
2022-09-23T10:51:16.375Z,1.10
2022-09-23T10:54:18.897Z,1.00
2022-09-23T10:57:42.950Z,1.00
2022-09-23T11:01:06.412Z,0.80
2022-09-23T11:04:27.180Z,1.10
2022-09-23T11:07:46.052Z,1.10
2022-09-23T11:11:01.899Z,0.90
2022-09-23T11:14:25.189Z,0.90
2022-09-23T11:17:49.513Z,1.10
2022-09-23T11:21:20.969Z,1.07
2022-09-23T11:24:58.428Z,1.00
2022-09-23T11:28:11.434Z,1.27
2022-09-23T11:31:39.115Z,0.90
2022-09-23T11:34:52.465Z,1.00
2022-09-23T11:38:02.382Z,0.90
2022-09-23T11:41:31.229Z,1.20
2022-09-23T11:44:37.321Z,1.23
2022-09-23T11:47:53.346Z,1.27
2022-09-23T11:51:19.976Z,1.10
2022-09-23T11:54:26.467Z,1.20
2022-09-23T11:57:44.744Z,1.30
2022-09-23T12:01:08.557Z,1.40
2022-09-23T12:04:34.181Z,1.00
2022-09-23T12:07:58.338Z,1.00
2022-09-23T12:11:20.336Z,1.20
2022-09-23T12:14:30.381Z,1.47
2022-09-23T12:17:45.566Z,1.37
2022-09-23T12:21:38.771Z,1.13
2022-09-23T12:24:57.512Z,1.20
2022-09-23T12:28:06.125Z,1.00
2022-09-23T12:31:18.689Z,1.00
2022-09-23T12:34:33.626Z,1.60
2022-09-23T12:37:38.215Z,1.10
2022-09-23T12:40:44.159Z,1.20
2022-09-23T12:43:55.769Z,1.30
2022-09-23T12:47:21.757Z,2.53
2022-09-23T12:50:58.579Z,1.05
2022-09-23T12:54:04.445Z,1.67
2022-09-23T12:57:31.807Z,1.27
2022-09-23T13:00:34.448Z,1.40
2022-09-23T13:03:54.701Z,1.48
2022-09-23T13:07:07.478Z,1.20
2022-09-23T13:10:22.286Z,1.33
2022-09-23T13:13:31.992Z,1.35
2022-09-23T13:16:52.345Z,1.30
2022-09-23T13:20:02.854Z,1.55
2022-09-23T13:23:27.728Z,1.20
2022-09-23T13:26:32.179Z,1.60
2022-09-23T13:29:57.167Z,1.50
2022-09-23T13:33:13.212Z,1.40
2022-09-23T13:36:18.083Z,1.70
2022-09-23T13:39:24.815Z,1.30
2022-09-23T13:42:29.603Z,1.60
2022-09-23T13:45:34.263Z,1.55
2022-09-23T13:48:36.360Z,1.73
2022-09-23T13:51:38.712Z,1.50
2022-09-23T13:54:49.550Z,1.60
2022-09-23T13:58:18.887Z,1.73
2022-09-23T14:01:33.643Z,1.77
2022-09-23T14:04:35.866Z,1.65
2022-09-23T14:07:38.006Z,1.70
2022-09-23T14:10:43.266Z,1.67
2022-09-23T14:13:46.777Z,1.60
2022-09-23T14:16:50.993Z,1.40
2022-09-23T14:19:52.929Z,1.55
2022-09-23T14:23:10.558Z,1.77
2022-09-23T14:26:12.424Z,1.85
2022-09-23T14:29:18.232Z,1.67
2022-09-23T14:32:26.412Z,2.15
2022-09-23T14:35:40.476Z,1.60
2022-09-23T14:38:51.640Z,1.65
2022-09-23T14:41:56.151Z,2.28
2022-09-23T14:44:58.134Z,3.35
2022-09-23T14:48:11.133Z,2.50
2022-09-23T14:51:16.927Z,2.08
2022-09-23T14:54:23.589Z,1.73
2022-09-23T14:57:28.481Z,1.90
2022-09-23T15:00:31.999Z,1.85
2022-09-23T15:03:33.972Z,2.05
2022-09-23T15:06:37.681Z,1.60
2022-09-23T15:09:41.359Z,1.60
2022-09-23T15:12:46.717Z,1.67
2022-09-23T15:15:48.886Z,1.70
2022-09-23T15:18:55.950Z,1.63
2022-09-23T15:21:57.965Z,1.80
2022-09-23T15:25:16.455Z,1.77
2022-09-23T15:28:19.085Z,1.83
2022-09-23T15:31:23.281Z,2.92
2022-09-23T15:34:25.477Z,2.17
2022-09-23T15:37:30.776Z,1.95
2022-09-23T15:40:38.197Z,1.88
2022-09-23T15:43:42.025Z,2.42
2022-09-23T15:46:48.879Z,2.70
2022-09-23T15:49:51.598Z,3.00
2022-09-23T15:52:54.010Z,1.70
2022-09-23T15:55:58.801Z,1.80
2022-09-23T15:59:01.208Z,2.13
2022-09-23T16:02:06.058Z,2.10
2022-09-23T16:05:18.593Z,1.57
2022-09-23T16:08:23.800Z,1.70
2022-09-23T16:11:29.717Z,2.03
2022-09-23T16:14:31.870Z,1.70
2022-09-23T16:17:33.705Z,2.80
2022-09-23T16:20:42.715Z,1.87
2022-09-23T16:23:47.881Z,1.90
2022-09-23T16:26:50.368Z,1.93
2022-09-23T16:29:52.277Z,1.97
2022-09-23T16:32:55.204Z,1.60
2022-09-23T16:35:57.439Z,2.03
2022-09-23T16:39:00.766Z,1.67
2022-09-23T16:42:02.877Z,1.87
2022-09-23T16:45:06.309Z,1.80
2022-09-23T16:48:08.205Z,1.57
2022-09-23T16:51:16.202Z,2.00
2022-09-23T16:54:20.572Z,1.90
2022-09-23T16:57:22.592Z,2.07
2022-09-23T17:00:43.081Z,2.00
2022-09-23T17:03:45.158Z,1.90
2022-09-23T17:06:52.290Z,2.37
2022-09-23T17:09:54.219Z,1.93
2022-09-23T17:12:56.243Z,2.20
2022-09-23T17:15:58.546Z,2.10
2022-09-23T17:19:09.382Z,2.10
2022-09-23T17:22:11.407Z,2.00
2022-09-23T17:25:13.372Z,8.03
2022-09-23T17:28:15.737Z,7.33
2022-09-23T17:31:18.320Z,2.93
2022-09-23T17:34:20.223Z,2.10
2022-09-23T17:37:22.116Z,2.63
2022-09-23T17:40:26.445Z,2.70
2022-09-23T17:43:29.513Z,2.40
2022-09-23T17:46:32.460Z,2.70
2022-09-23T17:49:35.719Z,2.43
2022-09-23T17:52:37.638Z,2.67
2022-09-23T17:55:39.882Z,2.43
2022-09-23T17:58:42.619Z,2.23
2022-09-23T18:01:44.505Z,2.10
2022-09-23T18:04:46.687Z,2.40
2022-09-23T18:07:48.704Z,2.77
2022-09-23T18:10:52.850Z,2.60
2022-09-23T18:14:04.026Z,2.50
2022-09-23T18:17:07.298Z,2.13
2022-09-23T18:20:11.379Z,2.50
2022-09-23T18:23:15.136Z,2.47
2022-09-23T18:26:22.389Z,2.60
2022-09-23T18:29:25.766Z,2.43
2022-09-23T18:32:28.967Z,3.50
2022-09-23T18:35:33.391Z,3.30
2022-09-23T18:38:35.599Z,2.77
2022-09-23T18:41:38.566Z,2.47
2022-09-23T18:44:40.997Z,2.13
2022-09-23T18:48:02.194Z,2.90
2022-09-23T18:51:04.179Z,3.00
2022-09-23T18:54:08.071Z,2.70
2022-09-23T18:57:12.861Z,3.23
2022-09-23T19:00:15.395Z,3.33
2022-09-23T19:03:17.339Z,2.67
2022-09-23T19:06:21.349Z,2.43
2022-09-23T19:09:23.937Z,3.37
2022-09-23T19:12:26.195Z,2.57
2022-09-23T19:15:28.181Z,2.90
2022-09-23T19:18:31.904Z,2.70
2022-09-23T19:21:35.455Z,2.07
2022-09-23T19:24:37.294Z,3.73
2022-09-23T19:27:40.483Z,3.20
2022-09-23T19:30:42.659Z,2.70
2022-09-23T19:33:49.816Z,2.80
2022-09-23T19:36:53.208Z,2.40
2022-09-23T19:39:55.493Z,1.90
2022-09-23T19:42:57.309Z,2.17
2022-09-23T19:45:59.174Z,2.47
2022-09-23T19:49:01.324Z,2.90
2022-09-23T19:52:03.264Z,2.63
2022-09-23T19:55:06.768Z,2.80
2022-09-23T19:58:09.693Z,2.90
2022-09-23T20:01:11.656Z,2.77
2022-09-23T20:04:14.025Z,2.60
2022-09-23T20:07:16.382Z,2.30
2022-09-23T20:10:19.417Z,2.57
2022-09-23T20:13:22.456Z,2.50
2022-09-23T20:16:25.612Z,2.50
2022-09-23T20:19:27.574Z,2.50
2022-09-23T20:22:33.082Z,2.73
2022-09-23T20:25:55.435Z,2.33
2022-09-23T20:28:59.784Z,2.57
2022-09-23T20:32:01.971Z,2.40
2022-09-23T20:35:06.031Z,2.43
2022-09-23T20:38:08.331Z,2.90
2022-09-23T20:41:10.579Z,4.10
2022-09-23T20:44:12.914Z,5.70
2022-09-23T20:47:17.530Z,5.33
2022-09-23T20:50:19.639Z,4.40
2022-09-23T20:53:23.570Z,3.20
2022-09-23T20:56:26.067Z,3.60
2022-09-23T20:59:28.308Z,3.43
2022-09-23T21:02:30.258Z,3.40
2022-09-23T21:05:35.076Z,3.10
2022-09-23T21:08:37.694Z,3.10
2022-09-23T21:11:39.622Z,3.50
2022-09-23T21:14:41.398Z,2.77
2022-09-23T21:17:43.608Z,3.37
2022-09-23T21:20:54.563Z,2.70
2022-09-23T21:24:17.392Z,2.90
2022-09-23T21:27:20.302Z,2.90
2022-09-23T21:30:23.201Z,3.00
2022-09-23T21:33:25.218Z,2.57
2022-09-23T21:36:28.637Z,2.70
2022-09-23T21:39:30.739Z,2.40
2022-09-23T21:42:32.684Z,2.60
2022-09-23T21:45:35.083Z,2.63
2022-09-23T21:48:41.401Z,2.80
2022-09-23T21:51:43.269Z,2.50
2022-09-23T21:54:46.421Z,2.67
2022-09-23T21:57:48.405Z,2.70
2022-09-23T22:00:50.370Z,2.60
2022-09-23T22:04:05.324Z,2.50
2022-09-23T22:07:07.427Z,2.67
2022-09-23T22:10:09.624Z,4.30
2022-09-23T22:13:13.050Z,2.63
2022-09-23T22:16:16.860Z,2.17
2022-09-23T22:19:18.817Z,2.27
2022-09-23T22:22:21.018Z,2.30
2022-09-23T22:25:23.003Z,2.70
2022-09-23T22:28:43.327Z,2.63
2022-09-23T22:32:04.201Z,2.50
2022-09-23T22:35:07.169Z,2.83
2022-09-23T22:38:09.382Z,2.50
2022-09-23T22:41:14.256Z,2.47
2022-09-23T22:44:19.211Z,2.33
2022-09-23T22:47:21.566Z,3.43
2022-09-23T22:50:24.448Z,2.90
2022-09-23T22:53:28.662Z,2.90
2022-09-23T22:56:30.659Z,2.60
2022-09-23T22:59:32.959Z,2.80
2022-09-23T23:02:34.917Z,2.90
2022-09-23T23:05:36.746Z,3.80
2022-09-23T23:08:39.163Z,2.33
2022-09-23T23:11:42.428Z,2.63
2022-09-23T23:14:45.370Z,2.47
2022-09-23T23:17:47.360Z,2.30
2022-09-23T23:20:49.309Z,2.83
2022-09-23T23:23:52.599Z,2.60
2022-09-23T23:26:55.412Z,2.57
2022-09-23T23:29:57.794Z,2.83
2022-09-23T23:32:59.972Z,2.47
2022-09-23T23:36:02.410Z,2.30
2022-09-23T23:39:04.550Z,2.40
2022-09-23T23:42:06.475Z,2.30
2022-09-23T23:45:08.858Z,2.30
2022-09-23T23:48:10.799Z,2.43
2022-09-23T23:51:13.499Z,2.10
2022-09-23T23:54:15.633Z,2.33
2022-09-23T23:57:18.428Z,2.13
